Normed Antwerpen — V2DG9 — position and weather

sailwx.info

Track history (hours):
 
Tides and Currents Weather Stations Pressure Air Temp Water Temp Dewpoint Dewpoint Depression Visibility Wind Speed Wind Dir Waves Ship Positions

Normed Antwerpen

Last reported at 2014-Jul-23 00:33 UTC. Time now 2014-Jul-23 01:17 UTC.
Position N 51°15' E 004°24'.

Length 130 m; draft 6.2 m.

Type: Ship. MMSI: 305210993.

Date/timePositionNaut miles runAvg speedWind from/ knotsBaromVisibWave heightAir tempDewpointWater temp
2014-Jul-23 00:33N 51°15' E 004°24'0 0.0
2014-Jul-22 23:33N 51°15' E 004°24'0 0.0
2014-Jul-22 22:32N 51°15' E 004°24'0 0.0
2014-Jul-22 21:32N 51°15' E 004°24'0 0.0
2014-Jul-22 20:31N 51°15' E 004°24'0 0.0
2014-Jul-22 19:31N 51°15' E 004°24'0 0.0
2014-Jul-22 18:33N 51°15' E 004°24'0 0.0
2014-Jul-22 17:33N 51°15' E 004°24'0 0.0
2014-Jul-22 16:33N 51°15' E 004°24'0 0.3
2014-Jul-22 15:33N 51°15' E 004°24'3 2.8
2014-Jul-22 14:33N 51°17' E 004°20'0 0.2
2014-Jul-22 13:31N 51°17' E 004°21'0 0.0
2014-Jul-22 12:31N 51°17' E 004°21'0 0.0
2014-Jul-22 11:27N 51°17' E 004°21'0 0.0
2014-Jul-22 10:33N 51°17' E 004°21'0 0.0
2014-Jul-22 09:32N 51°17' E 004°21'0 0.0
2014-Jul-22 08:29N 51°17' E 004°21'0 0.0
2014-Jul-22 07:29N 51°17' E 004°21'0 0.0
2014-Jul-22 06:31N 51°17' E 004°21'0 0.0
2014-Jul-22 05:31N 51°17' E 004°21'0 0.0
2014-Jul-22 04:30N 51°17' E 004°21'0 0.0
2014-Jul-22 03:33N 51°17' E 004°21'0 0.0
2014-Jul-22 02:32N 51°17' E 004°21'0 0.0
2014-Jul-22 01:32N 51°17' E 004°21'0 0.0
2014-Jul-22 00:29N 51°17' E 004°21'0 0.0
2014-Jul-21 23:31N 51°17' E 004°21'0 0.0
2014-Jul-21 22:31N 51°17' E 004°21'0 0.0
2014-Jul-21 21:27N 51°17' E 004°21'0 0.0
2014-Jul-21 20:33N 51°17' E 004°21'0 0.0
2014-Jul-21 20:18N 51°17' E 004°21'0 0.0
2014-Jul-21 19:32N 51°17' E 004°21'0 0.0
2014-Jul-21 18:32N 51°17' E 004°21'0 0.0
2014-Jul-21 17:29N 51°17' E 004°21'0 0.0
2014-Jul-21 16:31N 51°17' E 004°21'0 0.0
2014-Jul-21 15:28N 51°17' E 004°21'0 0.0
2014-Jul-21 14:33N 51°17' E 004°21'0 0.0
2014-Jul-21 13:30N 51°17' E 004°21'0 0.0
2014-Jul-21 12:32N 51°17' E 004°21'0 0.0
2014-Jul-21 11:32N 51°17' E 004°21'0 0.0
2014-Jul-21 10:28N 51°17' E 004°21'0 0.0
2014-Jul-21 09:28N 51°17' E 004°21'0 0.0
2014-Jul-21 08:33N 51°17' E 004°21'3 2.5
2014-Jul-21 07:33N 51°19' E 004°19'2 1.9
2014-Jul-21 06:34N 51°21' E 004°17'3 2.5
2014-Jul-21 05:33N 51°22' E 004°13'9 8.6
2014-Jul-21 04:34N 51°26' E 004°01'1110.6
2014-Jul-21 03:33N 51°22' E 003°45'10 9.5
2014-Jul-21 02:33N 51°25' E 003°31'1312.6
2014-Jul-21 01:33N 51°24' E 003°11'1212.5
2014-Jul-21 00:33N 51°22' E 002°51'1110.5
2014-Jul-20 23:33N 51°22' E 002°34'1413.6
2014-Jul-20 22:33N 51°16' E 002°15'1514.8
2014-Jul-20 21:33N 51°09' E 001°54'1514.8
2014-Jul-20 20:33N 50°59' E 001°36'3114.8
2014-Jul-20 18:27N 50°34' E 001°07'1614.2
2014-Jul-20 17:20N 50°27' E 000°44'1114.6
2014-Jul-20 16:33N 50°24' E 000°27'5115.6
2014-Jul-20 13:19N 50°11' W 000°49'  
2014-Jul-14 18:03N 38°34' W 009°49'812.0
2014-Jul-14 17:24N 38°26' W 009°46'1012.2
2014-Jul-14 16:33N 38°16' W 009°43'1212.4
2014-Jul-14 15:32N 38°04' W 009°40'1212.1
2014-Jul-14 14:32N 37°52' W 009°36'1212.0
2014-Jul-14 13:33N 37°40' W 009°33'1212.2
2014-Jul-14 12:32N 37°28' W 009°29'1211.9
2014-Jul-14 11:33N 37°17' W 009°26'1212.4
2014-Jul-14 10:33N 37°05' W 009°23'1412.4
2014-Jul-14 09:27N 36°52' W 009°18'1712.1
2014-Jul-14 08:05N 36°42' W 009°01'712.6
2014-Jul-14 07:33N 36°40' W 008°53'1313.0
2014-Jul-14 06:32N 36°36' W 008°37'1313.2
2014-Jul-14 05:33N 36°32' W 008°22'1413.5
2014-Jul-14 04:33N 36°28' W 008°06'1413.5
2014-Jul-14 03:33N 36°23' W 007°50'1413.5
2014-Jul-14 02:33N 36°19' W 007°34'1413.5
2014-Jul-14 01:33N 36°15' W 007°18'1313.4
2014-Jul-14 00:33N 36°11' W 007°02'1913.7
2014-Jul-13 23:09N 36°05' W 006°39'813.3
2014-Jul-13 22:32N 36°02' W 006°30'1414.0
2014-Jul-13 21:32N 35°58' W 006°13'1313.3
2014-Jul-13 20:33N 35°58' W 005°57'1211.6
2014-Jul-13 19:33N 35°58' W 005°43'  
Track history (hours):
 
Tides and Currents Weather Stations Pressure Air Temp Water Temp Dewpoint Dewpoint Depression Visibility Wind Speed Wind Dir Waves Ship Positions

Normed Antwerpen

Last reported at 2014-Jul-23 00:33 UTC. Time now 2014-Jul-23 01:17 UTC.
Position N 51°15' E 004°24'.

Length 130 m; draft 6.2 m.

Type: Ship. MMSI: 305210993.

Date/timePositionNaut miles runAvg speedWind from/ knotsBaromVisibWave heightAir tempDewpointWater temp
2014-Jul-23 00:33N 51°15' E 004°24'0 0.0
2014-Jul-22 23:33N 51°15' E 004°24'0 0.0
2014-Jul-22 22:32N 51°15' E 004°24'0 0.0
2014-Jul-22 21:32N 51°15' E 004°24'0 0.0
2014-Jul-22 20:31N 51°15' E 004°24'0 0.0
2014-Jul-22 19:31N 51°15' E 004°24'0 0.0
2014-Jul-22 18:33N 51°15' E 004°24'0 0.0
2014-Jul-22 17:33N 51°15' E 004°24'0 0.0
2014-Jul-22 16:33N 51°15' E 004°24'0 0.3
2014-Jul-22 15:33N 51°15' E 004°24'3 2.8
2014-Jul-22 14:33N 51°17' E 004°20'0 0.2
2014-Jul-22 13:31N 51°17' E 004°21'0 0.0
2014-Jul-22 12:31N 51°17' E 004°21'0 0.0
2014-Jul-22 11:27N 51°17' E 004°21'0 0.0
2014-Jul-22 10:33N 51°17' E 004°21'0 0.0
2014-Jul-22 09:32N 51°17' E 004°21'0 0.0
2014-Jul-22 08:29N 51°17' E 004°21'0 0.0
2014-Jul-22 07:29N 51°17' E 004°21'0 0.0
2014-Jul-22 06:31N 51°17' E 004°21'0 0.0
2014-Jul-22 05:31N 51°17' E 004°21'0 0.0
2014-Jul-22 04:30N 51°17' E 004°21'0 0.0
2014-Jul-22 03:33N 51°17' E 004°21'0 0.0
2014-Jul-22 02:32N 51°17' E 004°21'0 0.0
2014-Jul-22 01:32N 51°17' E 004°21'0 0.0
2014-Jul-22 00:29N 51°17' E 004°21'0 0.0
2014-Jul-21 23:31N 51°17' E 004°21'0 0.0
2014-Jul-21 22:31N 51°17' E 004°21'0 0.0
2014-Jul-21 21:27N 51°17' E 004°21'0 0.0
2014-Jul-21 20:33N 51°17' E 004°21'0 0.0
2014-Jul-21 20:18N 51°17' E 004°21'0 0.0
2014-Jul-21 19:32N 51°17' E 004°21'0 0.0
2014-Jul-21 18:32N 51°17' E 004°21'0 0.0
2014-Jul-21 17:29N 51°17' E 004°21'0 0.0
2014-Jul-21 16:31N 51°17' E 004°21'0 0.0
2014-Jul-21 15:28N 51°17' E 004°21'0 0.0
2014-Jul-21 14:33N 51°17' E 004°21'0 0.0
2014-Jul-21 13:30N 51°17' E 004°21'0 0.0
2014-Jul-21 12:32N 51°17' E 004°21'0 0.0
2014-Jul-21 11:32N 51°17' E 004°21'0 0.0
2014-Jul-21 10:28N 51°17' E 004°21'0 0.0
2014-Jul-21 09:28N 51°17' E 004°21'0 0.0
2014-Jul-21 08:33N 51°17' E 004°21'3 2.5
2014-Jul-21 07:33N 51°19' E 004°19'2 1.9
2014-Jul-21 06:34N 51°21' E 004°17'3 2.5
2014-Jul-21 05:33N 51°22' E 004°13'9 8.6
2014-Jul-21 04:34N 51°26' E 004°01'1110.6
2014-Jul-21 03:33N 51°22' E 003°45'10 9.5
2014-Jul-21 02:33N 51°25' E 003°31'1312.6
2014-Jul-21 01:33N 51°24' E 003°11'1212.5
2014-Jul-21 00:33N 51°22' E 002°51'1110.5
2014-Jul-20 23:33N 51°22' E 002°34'1413.6
2014-Jul-20 22:33N 51°16' E 002°15'1514.8
2014-Jul-20 21:33N 51°09' E 001°54'1514.8
2014-Jul-20 20:33N 50°59' E 001°36'3114.8
2014-Jul-20 18:27N 50°34' E 001°07'1614.2
2014-Jul-20 17:20N 50°27' E 000°44'1114.6
2014-Jul-20 16:33N 50°24' E 000°27'5115.6
2014-Jul-20 13:19N 50°11' W 000°49'  
2014-Jul-14 18:03N 38°34' W 009°49'812.0
2014-Jul-14 17:24N 38°26' W 009°46'1012.2
2014-Jul-14 16:33N 38°16' W 009°43'1212.4
2014-Jul-14 15:32N 38°04' W 009°40'1212.1
2014-Jul-14 14:32N 37°52' W 009°36'1212.0
2014-Jul-14 13:33N 37°40' W 009°33'1212.2
2014-Jul-14 12:32N 37°28' W 009°29'1211.9
2014-Jul-14 11:33N 37°17' W 009°26'1212.4
2014-Jul-14 10:33N 37°05' W 009°23'1412.4
2014-Jul-14 09:27N 36°52' W 009°18'1712.1
2014-Jul-14 08:05N 36°42' W 009°01'712.6
2014-Jul-14 07:33N 36°40' W 008°53'1313.0
2014-Jul-14 06:32N 36°36' W 008°37'1313.2
2014-Jul-14 05:33N 36°32' W 008°22'1413.5
2014-Jul-14 04:33N 36°28' W 008°06'1413.5
2014-Jul-14 03:33N 36°23' W 007°50'1413.5
2014-Jul-14 02:33N 36°19' W 007°34'1413.5
2014-Jul-14 01:33N 36°15' W 007°18'1313.4
2014-Jul-14 00:33N 36°11' W 007°02'1913.7
2014-Jul-13 23:09N 36°05' W 006°39'813.3
2014-Jul-13 22:32N 36°02' W 006°30'1414.0
2014-Jul-13 21:32N 35°58' W 006°13'1313.3
2014-Jul-13 20:33N 35°58' W 005°57'1211.6
2014-Jul-13 19:33N 35°58' W 005°43'  

Dump ship's entire track history